Pahranagat National Wildlife Refuge, Nevada Weather observations

Data are for 10 minute period ending at time listed.
 Day   Time   Solar   Ave.   Ave.  Ave.  Vector  Max.   Baro.   Total    
  of    of     Rad.   Air    Rel.  Wind   Wind   Wind  Press.  Precip.   
Year   Day            Temp.  Hum.  Speed  Dir.   Gust                    
2016   (PST)  Kw/m2    F      %     mph   deg.    mph    mb.     in.     
-------------------------------------------------------------------------
 242    5:50   0.05   58.3    65    2.1   296     3.8   906.7    0.00 
 242    6:00   0.07   59.3    64    1.5   351     3.2   906.8    0.00 
 242    6:10   0.08   61.3    59    3.0   348     5.0   906.9    0.00 
 242    6:20   0.10   63.2    55    3.0   308     5.7   906.9    0.00 
 242    6:30   0.13   64.8    55    1.5   276     2.6   907.0    0.00 
 242    6:40   0.15   66.7    52    0.7   300     2.6   907.1    0.00 
 242    6:50   0.17   68.2    53    1.2   254     2.2   907.1    0.00 
 242    7:00   0.20   69.8    48    0.3   310     1.6   907.0    0.00 
 242    7:10   0.22   71.5    43    1.7     8     4.7   907.0    0.00 
 242    7:20   0.25   72.2    41    5.1   345     8.3   906.9    0.00 
 242    7:30   0.27   73.1    40    5.9   333     9.7   906.8    0.00 
 242    7:40   0.29   74.0    40    5.5   322     8.6   906.7    0.00 
 242    7:50   0.32   74.8    40    5.4   311     9.8   906.7    0.00 
 242    8:00   0.34   75.7    38    5.5   320     7.7   906.7    0.00 
 242    8:10   0.36   77.0    38    4.7   323     6.7   906.6    0.00 
 242    8:20   0.38   78.7    34    4.6   302     8.0   906.4    0.00 
 242    8:30   0.41   79.8    33    4.7   324     7.1   906.3    0.00 
 242    8:40   0.42   81.1    32    5.2   330     8.2   906.1    0.00 
 242    8:50   0.44   82.1    32    5.8   329     8.9   906.0    0.00 
 242    9:00   0.46   82.5    30    6.5   331    10.0   905.9    0.00 
 242    9:10   0.48   83.3    29    6.1   335     9.3   905.8    0.00 
 242    9:20   0.50   84.4    28    4.7   328     7.7   905.8    0.00 
 242    9:30   0.51   85.7    27    3.4   325     6.2   905.7    0.00 
 242    9:40   0.53   86.7    25    3.7   326     6.4   905.7    0.00 
 242    9:50   0.54   87.1    24    3.3   337     5.9   905.6    0.00 
 242   10:00   0.56   89.0    22    1.5   288     6.0   905.5    0.00 
 242   10:10   0.57   90.2    21    1.7   285     3.3   905.5    0.00 
 242   10:20   0.58   90.8    20    1.7   279     3.4   905.4    0.00 
 242   10:30   0.59   91.0    19    2.1   262     3.5   905.3    0.00 
 242   10:40   0.60   92.1    19    1.9   234     3.9   905.2    0.00 
 242   10:50   0.61   92.1    18    2.1   272     3.7   905.1    0.00 
 242   11:00   0.62   92.8    18    2.4   283     5.6   905.0    0.00 
 242   11:10   0.62   92.7    18    3.3   296     5.6   904.9    0.00 
 242   11:20   0.63   93.1    16    4.5   315     7.0   904.8    0.00 
 242   11:30   0.64   93.6    15    2.2   334     5.6   904.7    0.00 
 242   11:40   0.64   94.4    15    3.0   309     6.8   904.5    0.00 
 242   11:50   0.64   95.0    14    2.2   282     3.9   904.4    0.00 
 242   12:00   0.64   95.7    13    2.1   271     3.9   904.3    0.00 
 242   12:10   0.64   96.0    14    3.1   270     6.0   904.1    0.00 
 242   12:20   0.64   96.1    15    3.1   277     5.7   904.0    0.00 
 242   12:30   0.64   96.2    17    2.8   258     4.7   904.0    0.00 
 242   12:40   0.63   96.2    13    3.1   253     5.6   904.0    0.00 
 242   12:50   0.62   96.1    14    3.7   275     6.2   903.9    0.00 
 242   13:00   0.61   96.5    12    2.3   258     6.1   903.7    0.00 
 242   13:10   0.60   97.2    14    4.3   256    11.3   903.5    0.00 
 242   13:20   0.60   96.4    14    4.7   277     9.1   903.4    0.00 
 242   13:30   0.59   96.9    13    3.6   240     9.2   903.3    0.00 
 242   13:40   0.59   97.3    13    3.1   192     6.2   903.1    0.00 
 242   13:50   0.59   98.0    15    2.6   261     6.3   902.9    0.00 
 242   14:00   0.57   97.7    12    3.1   264     5.7   902.8    0.00 
 242   14:10   0.56   98.1    13    4.8   188     9.1   902.7    0.00 
 242   14:20   0.56   98.5    13    4.9   158     8.9   902.5    0.00 
 242   14:30   0.52   98.0    13    5.9   127     9.6   902.4    0.00 
 242   14:40   0.52   97.7    12    3.9    85     8.6   902.3    0.00 
 242   14:50   0.48   98.1    12    4.9   137     8.1   902.2    0.00 
 242   15:00   0.46   98.0    12    5.6   143    10.2   902.1    0.00 
 242   15:10   0.45   98.0    14    4.0   178     9.1   902.0    0.00 
 242   15:20   0.44   97.4    17    3.3   238     8.5   902.0    0.00 
 242   15:30   0.42   96.7    16    2.7   226     6.9   901.9    0.00 
 242   15:40   0.41   96.9    16    4.1   220     7.7   901.9    0.00 
 242   15:50   0.36   96.4    17    2.3   226     5.7   901.8    0.00 
 242   16:00   0.37   97.1    14    3.1   206     7.0   901.8    0.00 
 242   16:10   0.35   98.7    14    2.9   160     5.7   901.7    0.00 
 242   16:20   0.32   98.7    12    3.3   152     8.6   901.7    0.00 
 242   16:30   0.27   95.8    14    7.2   153    13.6   901.5    0.00 
 242   16:40   0.21   94.9    12    7.4   138    10.8   901.4    0.00 
 242   16:50   0.18   94.1    13    7.5   148    13.3   901.4    0.00 
 242   17:00   0.15   93.2    13    8.9   149    13.6   901.4    0.00 
 242   17:10   0.13   93.2    13    6.1   152    11.5   901.3    0.00 
 242   17:20   0.11   92.9    13    6.8   130    11.2   901.1    0.00 
 242   17:30   0.08   91.1    16    5.1   154    10.1   901.1    0.00 
 242   17:40   0.03   88.7    19    3.9   154     5.9   901.0    0.00 
 242   17:50   0.03   86.1    19    3.5   163     6.5   901.0    0.00 
 242   18:00   0.01   86.0    15    5.1   170     8.9   900.9    0.00 
 242   18:10   0.01   86.7    14    4.6   170     8.1   900.9    0.00 
 242   18:20   0.00   85.0    16    2.6   178     4.5   901.0    0.00 
 242   18:30   0.00   84.1    15    2.0   144     4.4   901.0    0.00 
 242   18:40   0.00   83.3    16    3.7   133     4.7   900.9    0.00 
 242   18:50   0.00   83.6    15    4.3   132     5.6   900.9    0.00 
 242   19:00   0.00   83.5    14    3.3   120     5.0   901.0    0.00 
 242   19:10   0.00   84.2    14    4.1   100     5.9   901.2    0.00 
 242   19:20   0.00   81.4    19    2.5    42     5.3   901.3    0.00 
 242   19:30   0.00   76.5    24    0.3   308     2.3   901.4    0.00 
 242   19:40   0.00   72.6    29    1.1   250     3.9   901.6    0.00 
 242   19:50   0.00   69.2    40    3.1   313     4.1   901.8    0.00 
 242   20:00   0.00   66.0    43    2.7   340     4.1   902.0    0.00 
 242   20:10   0.00   64.8    46    2.2   329     4.8   902.2    0.00 
 242   20:20   0.00   63.2    50    2.5   321     3.4   902.3    0.00 
 242   20:30   0.00   62.7    54    2.1   298     3.2   902.4    0.00 
 242   20:40   0.00   62.5    51    1.6   335     3.5   902.5    0.00 
 242   20:50   0.00   65.6    39    3.7    17     4.3   902.5    0.00 
 242   21:00   0.00   66.6    36    2.0   346     3.7   902.5    0.00 
 242   21:10   0.00   62.9    46    2.3   356     3.7   902.6    0.00 
 242   21:20   0.00   65.3    37    2.4     2     3.7   902.7    0.00 
 242   21:30   0.00   65.5    40    2.7   332     4.7   902.8    0.00 
 242   21:40   0.00   59.6    58    2.3   324     3.9   902.9    0.00 
 242   21:50   0.00   62.3    47    1.2    35     2.3   902.9    0.00 
 242   22:00   0.00   59.7    58    2.0   292     3.4   902.9    0.00 
 242   22:10   0.00   57.4    63    1.6     2     2.9   902.9    0.00 
 242   22:20   0.00   62.7    42    1.7     3     2.8   903.0    0.00 
 242   22:30   0.00   64.3    37    1.6   111     2.6   903.1    0.00 
 242   22:40   0.00   62.5    52    2.2   266     4.2   903.1    0.00 
 242   22:50   0.00   58.6    60    2.5   356     3.9   903.2    0.00 
 242   23:00   0.00   65.3    34    3.5   349     4.3   903.3    0.00 
 242   23:10   0.00   62.5    43    4.0   338     6.4   903.2    0.00 
 242   23:20   0.00   59.4    48    2.0   339     5.3   903.4    0.00 
 242   23:30   0.00   59.9    52    2.5   313     6.5   903.4    0.00 
 242   23:40   0.00   58.7    54    1.8   310     5.0   903.5    0.00 
 242   23:50   0.00   60.3    48    4.7   324     6.3   903.5    0.00 
 243    0:00   0.00   63.5    39    4.3   305     6.6   903.6    0.00 
 243    0:10   0.00   67.3    31    2.8   342     4.4   903.6    0.00 
 243    0:20   0.00   63.6    40    2.0   281     3.9   903.6    0.00 
 243    0:30   0.00   60.5    46    1.2   323     3.3   903.6    0.00 
 243    0:40   0.00   59.5    49    3.5   317     4.8   903.5    0.00 
 243    0:50   0.00   58.9    48    3.7    19     5.3   903.5    0.00 
 243    1:00   0.00   61.1    45    2.7   316     4.5   903.5    0.00 
 243    1:10   0.00   56.9    58    2.2   300     3.3   903.6    0.00 
 243    1:20   0.00   55.4    61    1.7   280     2.9   903.6    0.00 
 243    1:30   0.00   56.0    57    0.3   100     1.3   903.6    0.00 
 243    1:40   0.00   59.1    47    1.8   271     3.1   903.6    0.00 
 243    1:50   0.00   58.6    50    1.6   295     2.7   903.6    0.00 
 243    2:00   0.00   56.0    56    1.5   332     3.8   903.6    0.00 
 243    2:10   0.00   56.1    56    4.7   327     6.5   903.5    0.00 
 243    2:20   0.00   56.2    55    3.9   331     6.4   903.5    0.00 
 243    2:30   0.00   57.8    50    4.2   323     6.9   903.6    0.00 
 243    2:40   0.00   61.4    43    5.6   308     6.9   903.6    0.00 
 243    2:50   0.00   60.1    46    2.4   311     5.9   903.6    0.00 
 243    3:00   0.00   59.3    44    2.4   320     3.4   903.7    0.00 
 243    3:10   0.00   57.2    47    3.2   307     4.5   903.7    0.00 
 243    3:20   0.00   56.2    53    1.4   315     4.1   903.8    0.00 
 243    3:30   0.00   56.8    48    4.8   312     6.3   903.7    0.00 
 243    3:40   0.00   52.9    58    1.4   300     5.0   903.7    0.00 
 243    3:50   0.00   53.5    53    1.0    80     2.3   903.8    0.00 
 243    4:00   0.00   58.8    40    1.7    38     3.9   903.8    0.00 
 243    4:10   0.00   58.2    45    4.2     2     5.9   903.7    0.00 
 243    4:20   0.00   54.2    58    1.3   152     3.2   903.8    0.00 
 243    4:30   0.00   54.6    53    1.6    52     2.5   903.8    0.00 
 243    4:40   0.00   53.3    59    1.2   327     3.3   903.9    0.00 
 243    4:50   0.00   53.5    58    1.3   282     2.3   904.0    0.00 
 243    5:00   0.00   55.2    50    2.0   313     3.7   904.1    0.00 
 243    5:10   0.00   53.7    52    1.9   329     3.2   904.2    0.00 
 243    5:20   0.01   50.8    61    2.4   336     3.1   904.2    0.00 
 243    5:30   0.01   49.3    69    2.6   291     3.8   904.3    0.00 
 243    5:40   0.01   48.4    72    1.0   327     3.1   904.4    0.00 

Return to Pahranagat N. Wildlife Refuge graphs page.


Western Regional Climate Center,wrcc@dri.edu